createdAt,value
2018-05-08T00:00:09.818Z,74.47
2018-05-08T00:01:09.815Z,74.08
2018-05-08T00:02:09.811Z,74.57
2018-05-08T00:03:09.810Z,74.37
2018-05-08T00:04:09.820Z,75.14
2018-05-08T00:05:09.812Z,74.95
2018-05-08T00:06:09.807Z,75.23
2018-05-08T00:07:09.806Z,75.90
2018-05-08T00:08:09.805Z,76.00
2018-05-08T00:09:09.803Z,75.71
2018-05-08T00:10:09.806Z,75.87
2018-05-08T00:11:09.806Z,75.77
2018-05-08T00:12:09.805Z,76.06
2018-05-08T00:13:09.803Z,76.54
2018-05-08T00:14:09.798Z,76.25
2018-05-08T00:15:09.796Z,76.54
2018-05-08T00:16:09.796Z,76.44
2018-05-08T00:17:09.793Z,77.21
2018-05-08T00:18:09.796Z,77.02
2018-05-08T00:19:09.795Z,77.02
2018-05-08T00:20:09.791Z,77.97
2018-05-08T00:21:09.793Z,77.69
2018-05-08T00:22:09.791Z,78.45
2018-05-08T00:23:09.790Z,78.36
2018-05-08T00:24:09.790Z,78.55
2018-05-08T00:25:09.788Z,78.55
2018-05-08T00:26:09.785Z,78.55
2018-05-08T00:27:09.780Z,78.64
2018-05-08T00:28:09.779Z,78.51
2018-05-08T00:29:09.778Z,78.70
2018-05-08T00:30:09.781Z,79.47
2018-05-08T00:31:09.779Z,78.99
2018-05-08T00:32:09.777Z,78.89
2018-05-08T00:33:09.804Z,78.99
2018-05-08T00:34:09.769Z,79.18
2018-05-08T00:35:09.770Z,79.75
2018-05-08T00:36:09.771Z,80.33
2018-05-08T00:37:09.769Z,79.85
2018-05-08T00:38:09.764Z,79.75
2018-05-08T00:39:09.762Z,80.04
2018-05-08T00:40:09.762Z,80.04
2018-05-08T00:41:09.761Z,79.57
2018-05-08T00:42:09.761Z,80.14
2018-05-08T00:43:09.761Z,79.85
2018-05-08T00:44:09.758Z,80.14
2018-05-08T00:45:09.756Z,80.62
2018-05-08T00:46:09.751Z,80.62
2018-05-08T00:47:09.750Z,80.62
2018-05-08T00:48:09.747Z,80.43
2018-05-08T00:49:09.745Z,81.10
2018-05-08T00:50:09.751Z,81.05
2018-05-08T00:51:09.749Z,81.05
2018-05-08T00:52:09.744Z,81.05
2018-05-08T00:53:09.737Z,81.05
2018-05-08T00:54:09.741Z,81.05
2018-05-08T00:55:09.745Z,81.25
2018-05-08T00:56:09.737Z,82.01
2018-05-08T00:57:09.735Z,80.87
2018-05-08T00:58:09.729Z,80.77
2018-05-08T00:59:09.727Z,81.05
2018-05-08T01:00:09.726Z,80.87
2018-05-08T01:01:09.723Z,81.15
2018-05-08T01:02:09.726Z,81.15
2018-05-08T01:03:09.724Z,81.25
2018-05-08T01:04:09.724Z,80.77
2018-05-08T01:05:09.721Z,80.29
2018-05-08T01:06:09.715Z,80.58
2018-05-08T01:07:09.714Z,80.48
2018-05-08T01:08:09.718Z,80.48
2018-05-08T01:09:09.714Z,80.48
2018-05-08T01:10:09.708Z,80.48
2018-05-08T01:11:09.705Z,80.62
2018-05-08T01:12:09.706Z,81.25
2018-05-08T01:13:09.700Z,81.25
2018-05-08T01:14:09.703Z,80.96
2018-05-08T01:15:09.701Z,81.25
2018-05-08T01:16:09.702Z,82.11
2018-05-08T01:17:09.794Z,81.73
2018-05-08T01:18:09.693Z,81.63
2018-05-08T01:19:09.691Z,81.63
2018-05-08T01:20:09.689Z,82.11
2018-05-08T01:21:09.685Z,82.40
2018-05-08T01:22:09.689Z,82.30
2018-05-08T01:23:09.687Z,82.78
2018-05-08T01:24:09.680Z,83.06
2018-05-08T01:25:09.677Z,82.78
2018-05-08T01:26:09.681Z,82.59
2018-05-08T01:27:09.682Z,82.40
2018-05-08T01:28:09.676Z,82.83
2018-05-08T01:29:09.673Z,82.64
2018-05-08T01:30:09.667Z,82.54
2018-05-08T01:31:09.666Z,83.36
2018-05-08T01:32:09.663Z,83.69
2018-05-08T01:33:09.660Z,83.40
2018-05-08T01:34:09.663Z,83.40
2018-05-08T01:35:09.661Z,83.40
2018-05-08T01:36:09.660Z,82.93
2018-05-08T01:37:09.656Z,83.40
2018-05-08T01:38:09.649Z,83.22
2018-05-08T01:39:09.650Z,83.16
2018-05-08T01:40:09.658Z,83.40
2018-05-08T01:41:09.647Z,83.36
2018-05-08T01:42:09.644Z,83.03
2018-05-08T01:43:09.653Z,83.12
2018-05-08T01:44:09.636Z,82.83
2018-05-08T01:45:09.633Z,83.03
2018-05-08T01:46:09.636Z,83.31
2018-05-08T01:47:09.633Z,83.89
2018-05-08T01:48:09.633Z,83.79
2018-05-08T01:49:09.632Z,84.46
2018-05-08T01:50:09.621Z,84.36
2018-05-08T01:51:09.621Z,84.42
2018-05-08T01:52:09.618Z,84.17
2018-05-08T01:53:09.617Z,84.75
2018-05-08T01:54:09.616Z,85.13
2018-05-08T01:55:09.614Z,85.47
2018-05-08T01:56:09.608Z,85.75
2018-05-08T01:57:09.606Z,85.66
2018-05-08T01:58:09.607Z,85.75
2018-05-08T01:59:09.604Z,86.23
2018-05-08T02:00:09.605Z,86.23
2018-05-08T02:01:09.601Z,86.33
2018-05-08T02:02:09.593Z,86.23
2018-05-08T02:03:09.590Z,85.94
2018-05-08T02:04:09.589Z,86.23
2018-05-08T02:05:09.585Z,87.00
2018-05-08T02:06:09.588Z,87.00
2018-05-08T02:07:09.585Z,87.19
2018-05-08T02:08:09.583Z,86.90
2018-05-08T02:09:09.583Z,87.09
2018-05-08T02:10:09.573Z,87.95
2018-05-08T02:11:09.570Z,87.62
2018-05-08T02:12:09.573Z,87.62
2018-05-08T02:13:09.568Z,87.53
2018-05-08T02:14:09.565Z,87.82
2018-05-08T02:15:09.560Z,88.29
2018-05-08T02:16:09.558Z,87.62
2018-05-08T02:17:09.556Z,87.82
2018-05-08T02:18:09.557Z,87.86
2018-05-08T02:19:09.555Z,87.62
2018-05-08T02:20:09.552Z,88.39
2018-05-08T02:21:09.551Z,88.96
2018-05-08T02:22:09.540Z,88.68
2018-05-08T02:23:09.538Z,88.87
2018-05-08T02:24:09.537Z,89.06
2018-05-08T02:25:09.532Z,89.44
2018-05-08T02:26:09.533Z,88.96
2018-05-08T02:27:09.531Z,89.06
2018-05-08T02:28:09.524Z,88.39
2018-05-08T02:29:09.520Z,88.58
2018-05-08T02:30:09.522Z,88.48
2018-05-08T02:31:09.519Z,88.20
2018-05-08T02:32:09.518Z,89.25
2018-05-08T02:33:09.515Z,88.58
2018-05-08T02:34:09.507Z,88.77
2018-05-08T02:35:09.504Z,89.15
2018-05-08T02:36:09.503Z,88.87
2018-05-08T02:37:09.500Z,89.53
2018-05-08T02:38:09.499Z,89.15
2018-05-08T02:39:09.500Z,89.06
2018-05-08T02:40:09.493Z,89.34
2018-05-08T02:41:09.489Z,89.06
2018-05-08T02:42:09.485Z,89.06
2018-05-08T02:43:09.480Z,89.63
2018-05-08T02:44:09.482Z,89.44
2018-05-08T02:45:09.479Z,89.34
2018-05-08T02:46:09.471Z,89.06
2018-05-08T02:47:09.471Z,89.34
2018-05-08T02:48:09.465Z,89.06
2018-05-08T02:49:09.463Z,89.25
2018-05-08T02:50:09.463Z,88.96
2018-05-08T02:51:09.462Z,89.34
2018-05-08T02:52:09.454Z,89.68
2018-05-08T02:53:09.448Z,89.39
2018-05-08T02:54:09.452Z,89.30
2018-05-08T02:55:09.449Z,89.97
2018-05-08T02:56:09.450Z,90.25
2018-05-08T02:57:09.444Z,90.25
2018-05-08T02:58:09.436Z,90.35
2018-05-08T02:59:09.434Z,90.25
2018-05-08T03:00:09.435Z,90.35
2018-05-08T03:01:09.437Z,90.45
2018-05-08T03:02:09.423Z,90.64
2018-05-08T03:03:09.420Z,90.64
2018-05-08T03:04:09.417Z,90.64
2018-05-08T03:05:09.415Z,90.64
2018-05-08T03:06:09.414Z,90.25
2018-05-08T03:07:09.412Z,89.68
2018-05-08T03:08:09.408Z,90.16
2018-05-08T03:09:09.405Z,90.06
2018-05-08T03:10:09.398Z,89.68
2018-05-08T03:11:09.394Z,89.59
2018-05-08T03:12:09.392Z,89.78
2018-05-08T03:13:09.392Z,89.49
2018-05-08T03:14:09.391Z,89.49
2018-05-08T03:15:09.387Z,89.01
2018-05-08T03:16:09.378Z,89.11
2018-05-08T03:17:09.374Z,88.82
2018-05-08T03:18:09.376Z,89.20
2018-05-08T03:19:09.374Z,89.01
2018-05-08T03:20:09.370Z,89.20
2018-05-08T03:21:09.371Z,89.20
2018-05-08T03:22:09.363Z,89.30
2018-05-08T03:23:09.355Z,89.11
2018-05-08T03:24:09.354Z,89.30
2018-05-08T03:25:09.348Z,89.68
2018-05-08T03:26:09.349Z,89.68
2018-05-08T03:27:09.347Z,89.68
2018-05-08T03:28:09.345Z,89.78
2018-05-08T03:29:09.341Z,89.78
2018-05-08T03:30:09.332Z,90.25
2018-05-08T03:31:09.329Z,90.50
2018-05-08T03:32:09.332Z,90.69
2018-05-08T03:33:09.326Z,90.69
2018-05-08T03:34:09.320Z,90.59
2018-05-08T03:35:09.316Z,91.07
2018-05-08T03:36:09.312Z,91.36
2018-05-08T03:37:09.325Z,91.36
2018-05-08T03:38:09.309Z,91.26
2018-05-08T03:39:09.306Z,91.16
2018-05-08T03:40:09.304Z,91.45
2018-05-08T03:41:09.299Z,91.74
2018-05-08T03:42:09.291Z,92.02
2018-05-08T03:43:09.288Z,91.83
2018-05-08T03:44:09.288Z,91.93
2018-05-08T03:45:09.281Z,91.74
2018-05-08T03:46:09.282Z,91.83
2018-05-08T03:47:09.280Z,91.83
2018-05-08T03:48:09.270Z,91.69
2018-05-08T03:49:09.268Z,92.69
2018-05-08T03:50:09.274Z,92.31
2018-05-08T03:51:09.266Z,92.02
2018-05-08T03:52:09.260Z,91.98
2018-05-08T03:53:09.258Z,92.26
2018-05-08T03:54:09.250Z,92.65
2018-05-08T03:55:09.244Z,92.55
2018-05-08T03:56:09.242Z,92.46
2018-05-08T03:57:09.239Z,92.26
2018-05-08T03:58:09.240Z,92.21
2018-05-08T03:59:09.236Z,92.26
2018-05-08T04:00:09.231Z,92.36
2018-05-08T04:01:09.228Z,92.26
2018-05-08T04:02:09.220Z,92.60
2018-05-08T04:03:09.216Z,92.55
2018-05-08T04:04:09.218Z,93.17
2018-05-08T04:05:09.213Z,93.26
2018-05-08T04:06:09.205Z,93.12
2018-05-08T04:07:09.202Z,92.93
2018-05-08T04:08:09.199Z,93.12
2018-05-08T04:09:09.194Z,93.17
2018-05-08T04:10:09.275Z,93.26
2018-05-08T04:11:09.194Z,93.22
2018-05-08T04:12:09.189Z,92.41
2018-05-08T04:13:09.185Z,92.74
2018-05-08T04:14:09.176Z,92.60
2018-05-08T04:15:09.179Z,92.31
2018-05-08T04:16:09.169Z,92.88
2018-05-08T04:17:09.165Z,92.79
2018-05-08T04:18:09.167Z,92.41
2018-05-08T04:19:09.162Z,92.12
2018-05-08T04:20:09.153Z,92.26
2018-05-08T04:21:09.217Z,92.69
2018-05-08T04:22:09.150Z,92.12
2018-05-08T04:23:09.152Z,92.26
2018-05-08T04:24:09.144Z,92.36
2018-05-08T04:25:09.139Z,92.12
2018-05-08T04:26:09.132Z,92.36
2018-05-08T04:27:09.128Z,92.41
2018-05-08T04:28:09.129Z,92.02
2018-05-08T04:29:09.120Z,91.83
2018-05-08T04:30:09.121Z,92.26
2018-05-08T04:31:09.118Z,92.12
2018-05-08T04:32:09.115Z,92.79
2018-05-08T04:33:09.110Z,92.69
2018-05-08T04:34:09.108Z,92.31
2018-05-08T04:35:09.099Z,92.41
2018-05-08T04:36:09.100Z,92.02
2018-05-08T04:37:09.096Z,92.41
2018-05-08T04:38:09.088Z,92.26
2018-05-08T04:39:09.087Z,92.26
2018-05-08T04:40:09.082Z,91.59
2018-05-08T04:41:09.078Z,91.50
2018-05-08T04:42:09.081Z,91.35
2018-05-08T04:43:09.078Z,91.35
2018-05-08T04:44:09.075Z,90.39
2018-05-08T04:45:09.072Z,89.63
2018-05-08T04:46:09.065Z,88.43
2018-05-08T04:47:09.064Z,88.43
2018-05-08T04:48:09.067Z,88.09
2018-05-08T04:49:09.059Z,87.04
2018-05-08T04:50:09.061Z,86.22
2018-05-08T04:51:09.061Z,85.02
2018-05-08T04:52:09.056Z,82.96
2018-05-08T04:53:09.053Z,82.71
2018-05-08T04:54:09.057Z,80.89
2018-05-08T04:55:09.056Z,79.24
2018-05-08T04:56:09.057Z,77.84
2018-05-08T04:57:09.055Z,75.87
2018-05-08T04:58:09.050Z,74.65
2018-05-08T04:59:09.051Z,72.54
2018-05-08T05:00:09.050Z,71.84
2018-05-08T05:01:09.049Z,69.82
2018-05-08T05:02:09.055Z,68.32
2018-05-08T05:03:09.055Z,67.10
2018-05-08T05:04:09.058Z,66.07
2018-05-08T05:05:09.058Z,64.56
2018-05-08T05:06:09.054Z,62.83
2018-05-08T05:07:09.055Z,64.02
2018-05-08T05:08:09.062Z,63.37
2018-05-08T05:09:09.069Z,62.05
2018-05-08T05:10:09.059Z,60.64
2018-05-08T05:11:09.082Z,60.16
2018-05-08T05:12:09.064Z,59.12
2018-05-08T05:13:09.065Z,58.37
2018-05-08T05:14:09.072Z,57.92
2018-05-08T05:15:09.074Z,57.08
2018-05-08T05:16:09.077Z,55.43
2018-05-08T05:17:09.079Z,55.27
2018-05-08T05:18:09.082Z,54.03
2018-05-08T05:19:09.081Z,53.09
2018-05-08T05:20:09.086Z,52.12
2018-05-08T05:21:09.088Z,51.47
2018-05-08T05:22:09.096Z,51.37
2018-05-08T05:23:09.100Z,50.24
2018-05-08T05:24:09.099Z,50.34
2018-05-08T05:25:09.103Z,49.10
2018-05-08T05:26:09.115Z,49.02
2018-05-08T05:27:09.115Z,48.54
2018-05-08T05:28:09.119Z,48.15
2018-05-08T05:29:09.123Z,47.20
2018-05-08T05:30:09.123Z,46.45
2018-05-08T05:31:09.128Z,46.35
2018-05-08T05:32:09.133Z,46.28
2018-05-08T05:33:09.137Z,45.62
2018-05-08T05:34:09.147Z,45.04
2018-05-08T05:35:09.153Z,44.09
2018-05-08T05:36:09.158Z,43.40
2018-05-08T05:37:09.163Z,43.70
2018-05-08T05:38:09.164Z,43.40
2018-05-08T05:39:09.170Z,43.99
2018-05-08T05:40:09.180Z,43.04
2018-05-08T05:41:09.186Z,43.04
2018-05-08T05:42:09.187Z,42.38
2018-05-08T05:43:09.198Z,42.10
2018-05-08T05:44:09.204Z,41.91
2018-05-08T05:45:09.206Z,41.91
2018-05-08T05:46:09.217Z,41.22
2018-05-08T05:47:09.224Z,41.35
2018-05-08T05:48:09.230Z,40.58
2018-05-08T05:49:09.239Z,40.39
2018-05-08T05:50:09.238Z,40.01
2018-05-08T05:51:09.246Z,40.01
2018-05-08T05:52:09.253Z,39.26
2018-05-08T05:53:09.261Z,39.06
2018-05-08T05:54:09.273Z,39.06
2018-05-08T05:55:09.280Z,38.40
2018-05-08T05:56:09.282Z,38.79
2018-05-08T05:57:09.293Z,38.51
2018-05-08T05:58:09.305Z,38.63
2018-05-08T05:59:09.311Z,37.85
2018-05-08T06:00:09.405Z,37.45
2018-05-08T06:01:09.325Z,37.67
2018-05-08T06:02:09.329Z,37.27
2018-05-08T06:03:09.339Z,37.27
2018-05-08T06:04:09.346Z,36.90
2018-05-08T06:05:09.354Z,36.47
2018-05-08T06:06:09.368Z,36.28
2018-05-08T06:07:09.378Z,36.18
2018-05-08T06:08:09.384Z,35.69
2018-05-08T06:09:09.398Z,35.71
2018-05-08T06:10:09.397Z,35.52
2018-05-08T06:11:09.406Z,35.42
2018-05-08T06:12:09.420Z,35.44
2018-05-08T06:13:09.429Z,35.57
2018-05-08T06:14:09.434Z,35.66
2018-05-08T06:15:09.443Z,35.39
2018-05-08T06:16:09.453Z,34.80
2018-05-08T06:17:09.462Z,34.72
2018-05-08T06:18:09.476Z,34.42
2018-05-08T06:19:09.488Z,34.05
2018-05-08T06:20:09.497Z,33.65
2018-05-08T06:21:09.506Z,32.79
2018-05-08T06:22:09.512Z,32.57
2018-05-08T06:23:09.523Z,32.40
2018-05-08T06:24:09.533Z,32.56
2018-05-08T06:25:09.543Z,32.48
2018-05-08T06:26:09.558Z,32.64
2018-05-08T06:27:09.569Z,32.94
2018-05-08T06:28:09.576Z,33.04
2018-05-08T06:29:09.586Z,33.05
2018-05-08T06:30:09.605Z,33.85
2018-05-08T06:31:09.630Z,34.46
2018-05-08T06:32:09.627Z,33.02
2018-05-08T06:33:09.635Z,31.74
2018-05-08T06:34:09.643Z,32.17
2018-05-08T06:35:09.653Z,31.57
2018-05-08T06:36:09.666Z,30.51
2018-05-08T06:37:09.677Z,29.34
2018-05-08T06:38:09.692Z,30.04
2018-05-08T06:39:09.704Z,29.37
2018-05-08T06:40:09.783Z,28.59
2018-05-08T06:41:09.728Z,28.10
2018-05-08T06:42:09.736Z,27.83
2018-05-08T06:43:09.748Z,27.83
2018-05-08T06:44:09.771Z,27.65
2018-05-08T06:45:09.777Z,27.35
2018-05-08T06:46:09.785Z,27.15
2018-05-08T06:47:09.799Z,27.84
2018-05-08T06:48:09.812Z,26.96
2018-05-08T06:49:09.825Z,27.45
2018-05-08T06:50:09.843Z,27.28
2018-05-08T06:51:09.855Z,26.68
2018-05-08T06:52:09.870Z,26.10
2018-05-08T06:53:09.883Z,26.33
2018-05-08T06:54:09.891Z,26.03
2018-05-08T06:55:09.904Z,25.35
2018-05-08T06:56:09.919Z,24.67
2018-05-08T06:57:09.932Z,23.58
2018-05-08T06:58:09.950Z,22.59
2018-05-08T06:59:09.966Z,22.19
2018-05-08T07:00:09.975Z,22.58
2018-05-08T07:01:09.992Z,22.69
2018-05-08T07:02:10.009Z,22.80
2018-05-08T07:03:10.023Z,22.31
2018-05-08T07:04:10.039Z,21.42
2018-05-08T07:05:10.051Z,21.54
2018-05-08T07:06:10.063Z,21.24
2018-05-08T07:07:10.077Z,20.54
2018-05-08T07:08:10.093Z,20.62
2018-05-08T07:09:10.111Z,20.50
2018-05-08T07:10:10.132Z,21.17
2018-05-08T07:11:10.147Z,20.97
2018-05-08T07:12:10.158Z,21.56
2018-05-08T07:13:10.173Z,21.17
2018-05-08T07:14:10.185Z,21.49
2018-05-08T07:15:10.202Z,22.17
2018-05-08T07:16:10.421Z,21.56
2018-05-08T07:17:10.237Z,21.17
2018-05-08T07:18:10.247Z,21.44
2018-05-08T07:19:10.264Z,21.64
2018-05-08T07:20:10.279Z,22.28
2018-05-08T07:21:10.296Z,22.83
2018-05-08T07:22:10.317Z,24.21
2018-05-08T07:23:10.336Z,24.32
2018-05-08T07:24:10.351Z,24.75
2018-05-08T07:25:10.365Z,24.09
2018-05-08T07:26:10.376Z,23.32
2018-05-08T07:27:10.394Z,22.64
2018-05-08T07:28:10.410Z,21.86
2018-05-08T07:29:10.429Z,21.05
2018-05-08T07:30:10.446Z,21.80
2018-05-08T07:31:10.465Z,22.64
2018-05-08T07:32:10.476Z,22.98
2018-05-08T07:33:10.492Z,24.10
2018-05-08T07:34:10.513Z,25.67
2018-05-08T07:35:10.571Z,27.45
2018-05-08T07:36:10.553Z,28.63
2018-05-08T07:37:10.563Z,29.17
2018-05-08T07:38:10.583Z,28.23
2018-05-08T07:39:10.593Z,28.09
2018-05-08T07:40:10.610Z,28.02
2018-05-08T07:41:10.626Z,27.67
2018-05-08T07:42:10.646Z,27.47
2018-05-08T07:43:10.673Z,26.79
2018-05-08T07:44:10.680Z,27.12
2018-05-08T07:45:10.694Z,26.28
2018-05-08T07:46:10.707Z,26.95
2018-05-08T07:47:10.723Z,27.08
2018-05-08T07:48:10.744Z,27.22
2018-05-08T07:49:10.760Z,25.85
2018-05-08T07:50:10.775Z,24.26
2018-05-08T07:51:10.788Z,24.11
2018-05-08T07:52:10.806Z,23.79
2018-05-08T07:53:10.821Z,24.18
2018-05-08T07:54:10.842Z,24.16
2018-05-08T07:55:10.858Z,24.92
2018-05-08T07:56:10.876Z,25.52
2018-05-08T07:57:10.897Z,25.63
2018-05-08T07:58:10.904Z,25.43
2018-05-08T07:59:10.923Z,25.54
2018-05-08T08:00:10.938Z,25.65
2018-05-08T08:01:10.955Z,24.69
2018-05-08T08:02:10.976Z,24.34
2018-05-08T08:03:10.993Z,23.99
2018-05-08T08:04:11.006Z,22.34
2018-05-08T08:05:11.024Z,21.38
2018-05-08T08:06:11.045Z,20.72
2018-05-08T08:07:11.063Z,20.22
2018-05-08T08:08:11.082Z,19.39
2018-05-08T08:09:11.102Z,20.03
2018-05-08T08:10:11.111Z,21.28
2018-05-08T08:11:11.136Z,21.39
2018-05-08T08:12:11.148Z,21.53
2018-05-08T08:13:11.165Z,21.34
2018-05-08T08:14:11.188Z,21.11
2018-05-08T08:15:11.214Z,21.39
2018-05-08T08:16:11.226Z,21.63
2018-05-08T08:17:11.244Z,22.27
2018-05-08T08:18:11.265Z,22.75
2018-05-08T08:19:11.277Z,24.11
2018-05-08T08:20:11.301Z,25.16
2018-05-08T08:21:11.320Z,24.49
2018-05-08T08:22:11.332Z,23.71
2018-05-08T08:23:11.353Z,23.88
2018-05-08T08:24:11.371Z,24.36
2018-05-08T08:25:11.389Z,25.05
2018-05-08T08:26:11.412Z,25.07
2018-05-08T08:27:11.433Z,24.90
2018-05-08T08:28:11.450Z,24.23
2018-05-08T08:29:11.467Z,22.60
2018-05-08T08:30:11.488Z,21.53
2018-05-08T08:31:11.499Z,21.04
2018-05-08T08:32:11.518Z,21.07
2018-05-08T08:33:11.536Z,19.71
2018-05-08T08:34:11.561Z,19.81
2018-05-08T08:35:11.577Z,18.73
2018-05-08T08:36:11.592Z,18.96
2018-05-08T08:37:11.611Z,19.85
2018-05-08T08:38:11.634Z,20.94
2018-05-08T08:39:11.653Z,20.04
2018-05-08T08:40:11.673Z,20.64
2018-05-08T08:41:11.690Z,21.12
2018-05-08T08:42:11.705Z,21.23
2018-05-08T08:43:11.725Z,20.33
2018-05-08T08:44:11.745Z,20.61
2018-05-08T08:45:11.764Z,21.19
2018-05-08T08:46:11.788Z,21.39
2018-05-08T08:47:11.808Z,21.53
2018-05-08T08:48:11.831Z,20.30
2018-05-08T08:49:11.849Z,21.50
2018-05-08T08:50:11.866Z,20.95
2018-05-08T08:51:11.892Z,22.38
2018-05-08T08:52:11.911Z,21.05
2018-05-08T08:53:11.936Z,19.68
2018-05-08T08:54:11.950Z,19.49
2018-05-08T08:55:11.968Z,19.51
2018-05-08T08:56:11.989Z,19.03
2018-05-08T08:57:12.009Z,18.63
2018-05-08T08:58:12.034Z,18.24
2018-05-08T08:59:12.054Z,18.29
2018-05-08T09:00:12.076Z,19.64
2018-05-08T09:01:12.095Z,19.89
2018-05-08T09:02:12.112Z,19.84
2018-05-08T09:03:12.133Z,20.70
2018-05-08T09:04:12.154Z,20.92
2018-05-08T09:05:12.174Z,20.64
2018-05-08T09:06:12.201Z,19.93
2018-05-08T09:07:12.221Z,20.79
2018-05-08T09:08:12.243Z,21.92
2018-05-08T09:09:12.257Z,22.83
2018-05-08T09:10:12.283Z,23.05
2018-05-08T09:11:12.351Z,22.30
2018-05-08T09:12:12.325Z,21.44
2018-05-08T09:13:12.351Z,21.06
2018-05-08T09:14:12.364Z,21.04
2018-05-08T09:15:12.384Z,19.82
2018-05-08T09:16:12.404Z,20.50
2018-05-08T09:17:12.425Z,21.24
2018-05-08T09:18:12.459Z,21.13
2018-05-08T09:19:12.472Z,20.39
2018-05-08T09:20:12.493Z,21.19
2018-05-08T09:21:12.513Z,20.60
2018-05-08T09:22:12.532Z,20.67
2018-05-08T09:23:12.552Z,21.78
2018-05-08T09:24:12.578Z,21.51
2018-05-08T09:25:12.598Z,20.97
2018-05-08T09:26:12.615Z,19.90
2018-05-08T09:27:12.635Z,18.15
2018-05-08T09:28:12.660Z,18.02
2018-05-08T09:29:12.683Z,17.99
2018-05-08T09:30:12.705Z,18.80
2018-05-08T09:31:12.724Z,18.69
2018-05-08T09:32:12.744Z,18.69
2018-05-08T09:33:12.765Z,19.07
2018-05-08T09:34:12.783Z,18.60
2018-05-08T09:35:12.801Z,18.71
2018-05-08T09:36:12.821Z,18.33
2018-05-08T09:37:12.841Z,17.73
2018-05-08T09:38:12.866Z,17.46
2018-05-08T09:39:12.888Z,17.49
2018-05-08T09:40:12.907Z,17.08
2018-05-08T09:41:12.924Z,16.50
2018-05-08T09:42:12.949Z,15.98
2018-05-08T09:43:12.969Z,16.27
2018-05-08T09:44:12.991Z,17.07
2018-05-08T09:45:13.012Z,16.86
2018-05-08T09:46:13.029Z,17.47
2018-05-08T09:47:13.049Z,16.46
2018-05-08T09:48:13.071Z,16.86
2018-05-08T09:49:13.152Z,17.41
2018-05-08T09:50:13.125Z,18.01
2018-05-08T09:51:13.135Z,18.16
2018-05-08T09:52:13.158Z,18.38
2018-05-08T09:53:13.175Z,18.80
2018-05-08T09:54:13.260Z,18.90
2018-05-08T09:55:13.212Z,18.10
2018-05-08T09:56:13.238Z,18.30
2018-05-08T09:57:13.256Z,18.31
2018-05-08T09:58:13.272Z,18.92
2018-05-08T09:59:13.300Z,18.82
2018-05-08T10:00:13.330Z,18.82
2018-05-08T10:01:13.332Z,18.43
2018-05-08T10:02:13.361Z,18.22
2018-05-08T10:03:13.379Z,18.20
2018-05-08T10:04:13.399Z,18.51
2018-05-08T10:05:13.420Z,17.98
2018-05-08T10:06:13.435Z,18.08
2018-05-08T10:07:13.455Z,18.65
2018-05-08T10:08:13.474Z,19.04
2018-05-08T10:09:13.497Z,19.40
2018-05-08T10:10:13.520Z,19.96
2018-05-08T10:11:13.538Z,20.93
2018-05-08T10:12:13.553Z,21.33
2018-05-08T10:13:13.571Z,20.92
2018-05-08T10:14:13.595Z,22.38
2018-05-08T10:15:13.615Z,22.71
2018-05-08T10:16:13.634Z,22.55
2018-05-08T10:17:13.650Z,21.25
2018-05-08T10:18:13.665Z,21.45
2018-05-08T10:19:13.686Z,21.48
2018-05-08T10:20:13.700Z,21.11
2018-05-08T10:21:13.718Z,19.73
2018-05-08T10:22:13.740Z,19.93
2018-05-08T10:23:13.759Z,18.56
2018-05-08T10:24:13.779Z,18.54
2018-05-08T10:25:13.796Z,18.91
2018-05-08T10:26:13.809Z,18.90
2018-05-08T10:27:13.828Z,18.91
2018-05-08T10:28:13.850Z,19.79
2018-05-08T10:29:13.868Z,19.58
2018-05-08T10:30:13.883Z,19.69
2018-05-08T10:31:13.906Z,19.71
2018-05-08T10:32:13.919Z,19.68
2018-05-08T10:33:13.937Z,20.85
2018-05-08T10:34:13.957Z,20.38
2018-05-08T10:35:13.975Z,19.98
2018-05-08T10:36:13.993Z,18.71
2018-05-08T10:37:14.014Z,19.21
2018-05-08T10:38:14.025Z,20.18
2018-05-08T10:39:14.046Z,19.80
2018-05-08T10:40:14.060Z,19.60
2018-05-08T10:41:14.077Z,19.60
2018-05-08T10:42:14.101Z,19.70
2018-05-08T10:43:14.118Z,19.96
2018-05-08T10:44:14.130Z,19.75
2018-05-08T10:45:14.147Z,20.75
2018-05-08T10:46:14.170Z,21.23
2018-05-08T10:47:14.187Z,20.75
2018-05-08T10:48:14.203Z,20.87
2018-05-08T10:49:14.219Z,20.67
2018-05-08T10:50:14.233Z,20.47
2018-05-08T10:51:14.250Z,20.75
2018-05-08T10:52:14.267Z,20.75
2018-05-08T10:53:14.283Z,20.43
2018-05-08T10:54:14.306Z,21.33
2018-05-08T10:55:14.321Z,21.23
2018-05-08T10:56:14.344Z,20.82
2018-05-08T10:57:14.357Z,21.03
2018-05-08T10:58:14.367Z,21.19
2018-05-08T10:59:14.387Z,20.90
2018-05-08T11:00:14.407Z,21.09
2018-05-08T11:01:14.422Z,21.01
2018-05-08T11:02:14.433Z,20.92
2018-05-08T11:03:14.451Z,20.56
2018-05-08T11:04:14.466Z,20.59
2018-05-08T11:05:14.482Z,19.49
2018-05-08T11:06:14.502Z,19.78
2018-05-08T11:07:14.520Z,20.64
2018-05-08T11:08:14.536Z,21.00
2018-05-08T11:09:14.552Z,21.02
2018-05-08T11:10:14.568Z,21.40
2018-05-08T11:11:14.581Z,20.90
2018-05-08T11:12:14.598Z,21.03
2018-05-08T11:13:14.613Z,21.23
2018-05-08T11:14:14.635Z,20.73
2018-05-08T11:15:14.652Z,20.82
2018-05-08T11:16:14.664Z,20.70
2018-05-08T11:17:14.678Z,21.61
2018-05-08T11:18:14.699Z,21.01
2018-05-08T11:19:14.725Z,21.01
2018-05-08T11:20:14.729Z,21.17
2018-05-08T11:21:14.744Z,21.47
2018-05-08T11:22:14.756Z,21.36
2018-05-08T11:23:14.774Z,21.24
2018-05-08T11:24:14.792Z,22.70
2018-05-08T11:25:14.803Z,22.88
2018-05-08T11:26:14.813Z,23.26
2018-05-08T11:27:14.897Z,23.73
2018-05-08T11:28:14.841Z,24.30
2018-05-08T11:29:14.853Z,24.30
2018-05-08T11:30:14.873Z,25.16
2018-05-08T11:31:14.884Z,25.35
2018-05-08T11:32:14.895Z,25.25
2018-05-08T11:33:14.905Z,25.25
2018-05-08T11:34:14.919Z,25.74
2018-05-08T11:35:14.933Z,25.74
2018-05-08T11:36:14.940Z,26.43
2018-05-08T11:37:14.957Z,26.34
2018-05-08T11:38:14.956Z,26.03
2018-05-08T11:39:15.036Z,26.63
2018-05-08T11:40:14.981Z,26.81
2018-05-08T11:41:14.985Z,26.72
2018-05-08T11:42:14.998Z,26.91
2018-05-08T11:43:15.007Z,27.01
2018-05-08T11:44:15.021Z,27.00
2018-05-08T11:45:15.026Z,27.19
2018-05-08T11:46:15.030Z,27.37
2018-05-08T11:47:15.037Z,27.86
2018-05-08T11:48:15.056Z,27.95
2018-05-08T11:49:15.060Z,28.45
2018-05-08T11:50:15.061Z,28.26
2018-05-08T11:51:15.071Z,28.65
2018-05-08T11:52:15.078Z,28.75
2018-05-08T11:53:15.085Z,28.34
2018-05-08T11:54:15.096Z,28.44
2018-05-08T11:55:15.104Z,28.05
2018-05-08T11:56:15.112Z,28.93
2018-05-08T11:57:15.119Z,29.24
2018-05-08T11:58:15.122Z,28.75
2018-05-08T11:59:15.129Z,29.06
2018-05-08T12:00:15.137Z,28.57
2018-05-08T12:01:15.143Z,28.49
2018-05-08T12:02:15.156Z,28.09
2018-05-08T12:03:15.162Z,28.08
2018-05-08T12:04:15.164Z,27.69
2018-05-08T12:05:15.172Z,27.58
2018-05-08T12:06:15.183Z,27.98
2018-05-08T12:07:15.194Z,28.38
2018-05-08T12:08:15.197Z,27.50
2018-05-08T12:09:15.257Z,27.97
2018-05-08T12:10:15.206Z,27.87
2018-05-08T12:11:15.213Z,27.66
2018-05-08T12:12:15.219Z,27.86
2018-05-08T12:13:15.225Z,28.34
2018-05-08T12:14:15.237Z,27.76
2018-05-08T12:15:15.243Z,28.05
2018-05-08T12:16:15.261Z,28.15
2018-05-08T12:17:15.261Z,28.74
2018-05-08T12:18:15.259Z,29.24
2018-05-08T12:19:15.265Z,28.94
2018-05-08T12:20:15.280Z,28.26
2018-05-08T12:21:15.282Z,28.16
2018-05-08T12:22:15.285Z,28.26
2018-05-08T12:23:15.291Z,28.07
2018-05-08T12:24:15.298Z,28.16
2018-05-08T12:25:15.303Z,28.36
2018-05-08T12:26:15.315Z,28.94
2018-05-08T12:27:15.328Z,30.51
2018-05-08T12:28:15.328Z,31.30
2018-05-08T12:29:15.335Z,30.03
2018-05-08T12:30:15.336Z,29.24
2018-05-08T12:31:15.344Z,28.44
2018-05-08T12:32:15.353Z,28.25
2018-05-08T12:33:15.354Z,28.25
2018-05-08T12:34:15.366Z,28.44
2018-05-08T12:35:15.372Z,28.15
2018-05-08T12:36:15.427Z,28.44
2018-05-08T12:37:15.382Z,28.44
2018-05-08T12:38:15.429Z,28.94
2018-05-08T12:39:15.397Z,29.14
2018-05-08T12:40:15.403Z,29.15
2018-05-08T12:41:15.421Z,29.35
2018-05-08T12:42:15.411Z,28.28
2018-05-08T12:43:15.417Z,28.18
2018-05-08T12:44:15.509Z,28.58
2018-05-08T12:45:15.429Z,28.39
2018-05-08T12:46:15.442Z,28.88
2018-05-08T12:47:15.448Z,28.19
2018-05-08T12:48:15.458Z,27.50
2018-05-08T12:49:15.461Z,27.69
2018-05-08T12:50:15.464Z,27.87
2018-05-08T12:51:15.468Z,27.78
2018-05-08T12:52:15.478Z,27.87